Nottingham, Pennsylvania
Current Conditions -  °F | °C
As of 12:35 AM on Thursday 23 Oct 2014 (Local Time) from KMQS Reporting Station
Light Rain Light Rain  
Wind Chill: 50°   Ceiling: 3000
Heat Index: 50°   Visibility: 7mi
Dew Point: 46°   Wind: 16mph
Humidity: 87%   Direction: 330°NNW
Pressure: 29.83"   Gusts: 23mph
Location:  39.76°N, 76.01°W
Report Text: KMQS 230435Z AUTO 33014G20KT 7SM -RA SCT025 BKN030 BKN047 10/08 A2983 RMK AO2
Loading
Personal Weather Stations






























Interactive Weather Map
Tropical Storm Tracking
New forecast layout! Learn more

10-Day Weather Forecast

Advertisements
Track Severe Weather on mobile